Monroe County Airport
KBMG : now visible

Airfield :











YOU CAN JOIN US ON...

 
LOGIN :

Register | Disclaimer

   EN    FR    IT 

 









Legend :    VFR   Marginal VFR   IFR   Intensive IFR   Very Intensive IFR
Visi :
Ceiling :
>= 8 km
>= 3000ft
5 to 8 km
1000 to 3000 ft
1500m to 5 km
500 to 1000 ft
800 to 1500m
200 to 500 ft
< 800m
< 200 ft
Symbols :   Thunderstorms  Fog  Heavy snow  Heavy precipitations  Wind > 20 kt






- Airport Elevation : 846 ft
- IATA code : BMG


KBMG - Monroe County

CURRENT METAR :
  • 141953Z 26007KT 10SM FEW015 BKN065 OVC075 06/02 A2972 RMK AO2 SLP066 T00560022

EXPIRED METARs :
  • 141926Z 26008KT 10SM SCT015 OVC047 06/02 A2971 RMK AO2 T00560022
  • 141853Z 25005KT 10SM BKN016 BKN050 06/02 A2971 RMK AO2 SLP064 T00560022
  • 141832Z 25007KT 10SM OVC016 06/02 A2972 RMK AO2 T00560017
  • 141753Z 27006KT 10SM BKN014 OVC085 05/02 A2971 RMK AO2 SLP065 T00500017 10050 20017 56004

TAF KBMG
Valid from the 14 at 18:00 until the 15 at 18:00 UTC


141720Z 1418/1518 27007KT P6SM OVC018
FM142000 27008KT P6SM OVC045
FM142200 28008KT P6SM OVC013
FM150200 29008KT P6SM BKN008
FM150700 29006KT P6SM BKN017
FM151100 VRB04KT P6SM BKN035



MET'MAP, your aeronautical weather chart ! - Copyright ORBIFLY December 2007 - Disclaimer

ORBIFLY MET'MAP TEAM :

Programming & Development : Alexandra Zaïnal
Concept & original design : Baudouin d'Aumeries
Assistance for programming : Marc-Olivier Méhu
Technical & hardware support : Manuel Goepfert

Contact : metmap@orbifly.com




SOURCES & CREDITS :

   NOAA       Earth
Advisory